Seaspan Royal — CFN5543 — position and weather

sailwx.info

Track history (hours):
 
Tides and Currents Weather Stations Pressure Air Temp Water Temp Dewpoint Dewpoint Depression Visibility Wind Speed Wind Dir Waves Ship Positions

Seaspan Royal

Last reported at 2017-Dec-17 14:00 UTC. Time now 2017-Dec-17 14:01 UTC.
Position N 34°17' W 121°16'.

Length 40 m; draft 5.6 m.

Type: Tug. MMSI: 316003600.

Date/timePositionNaut miles runAvg speedWind from/ knotsBaromVisibWave heightAir tempDewpointWater temp
2017-Dec-17 14:00N 34°17' W 121°16'3 6.4
2017-Dec-17 13:30N 34°14' W 121°14'3 5.8
2017-Dec-17 13:00N 34°12' W 121°12'3 5.5
2017-Dec-17 12:30N 34°10' W 121°10'3 5.4
2017-Dec-17 12:00N 34°07' W 121°09'3 5.3
2017-Dec-17 11:30N 34°05' W 121°07'3 5.5
2017-Dec-17 11:00N 34°03' W 121°06'3 5.6
2017-Dec-17 10:30N 34°00' W 121°04'3 5.4
2017-Dec-17 10:00N 33°58' W 121°02'3 5.5
2017-Dec-17 09:30N 33°56' W 121°01'3 5.5
2017-Dec-17 09:00N 33°53' W 120°59'3 5.1
2017-Dec-17 08:30N 33°51' W 120°57'3 5.4
2017-Dec-17 08:00N 33°49' W 120°55'3 5.4
2017-Dec-17 07:30N 33°46' W 120°54'3 5.4
2017-Dec-17 07:00N 33°44' W 120°52'3 5.2
2017-Dec-17 06:30N 33°42' W 120°51'2 4.9
2017-Dec-17 06:00N 33°40' W 120°49'2 4.9
2017-Dec-17 05:30N 33°37' W 120°48'2 4.9
2017-Dec-17 05:00N 33°35' W 120°46'2 4.9
2017-Dec-17 04:30N 33°33' W 120°45'2 4.8
2017-Dec-17 04:00N 33°31' W 120°43'2 4.6
2017-Dec-17 03:30N 33°29' W 120°42'2 4.4
2017-Dec-17 03:00N 33°28' W 120°40'2 4.4
2017-Dec-17 02:30N 33°26' W 120°39'2 4.5
2017-Dec-17 01:59N 33°24' W 120°37'2 4.4
2017-Dec-17 01:30N 33°23' W 120°35'2 3.9
2017-Dec-17 01:00N 33°21' W 120°33'2 3.6
2017-Dec-17 00:30N 33°20' W 120°32'1 2.8
2017-Dec-17 00:00N 33°19' W 120°30'1 2.6
2017-Dec-16 23:30N 33°18' W 120°29'1 2.4
2017-Dec-16 22:56N 33°17' W 120°28'1 2.4
2017-Dec-16 22:28N 33°17' W 120°27'1 2.6
2017-Dec-16 21:56N 33°16' W 120°26'1 2.2
2017-Dec-16 21:30N 33°15' W 120°25'1 2.2
2017-Dec-16 21:00N 33°14' W 120°24'1 2.4
2017-Dec-16 20:30N 33°13' W 120°23'1 2.0
2017-Dec-16 20:00N 33°13' W 120°22'2 2.1
2017-Dec-16 18:50N 33°11' W 120°20'1 2.4
2017-Dec-16 18:30N 33°11' W 120°19'3 3.0
2017-Dec-16 17:28N 33°08' W 120°16'2 3.8
2017-Dec-16 17:00N 33°07' W 120°15'66 6.2
2017-Dec-16 06:15N 32°18' W 119°22'2 8.2
2017-Dec-16 06:00N 32°17' W 119°20'4 8.1
2017-Dec-16 05:28N 32°14' W 119°17'4 7.8
2017-Dec-16 05:00N 32°11' W 119°14'6 7.8
2017-Dec-16 04:17N 32°07' W 119°09'17 7.9
2017-Dec-16 02:11N 31°55' W 118°56'1 7.8
2017-Dec-16 02:00N 31°54' W 118°54'  
2017-Dec-09 13:08N 32°13' W 117°35'1 8.4
2017-Dec-09 13:00N 32°13' W 117°36'4 8.0
2017-Dec-09 12:29N 32°15' W 117°41'4 8.3
2017-Dec-09 12:00N 32°17' W 117°45'4 8.7
2017-Dec-09 11:30N 32°19' W 117°50'4 8.7
2017-Dec-09 11:00N 32°21' W 117°54'4 8.6
2017-Dec-09 10:30N 32°22' W 117°59'4 8.7
2017-Dec-09 10:00N 32°24' W 118°03'4 8.8
2017-Dec-09 09:30N 32°26' W 118°08'4 8.8
2017-Dec-09 09:00N 32°28' W 118°13'5 8.9
2017-Dec-09 08:29N 32°30' W 118°18'4 8.6
2017-Dec-09 08:00N 32°32' W 118°22'5 8.9
2017-Dec-09 07:25N 32°35' W 118°27'5 9.0
2017-Dec-09 06:54N 32°37' W 118°32'4 9.1
2017-Dec-09 06:30N 32°39' W 118°36'7 9.0
2017-Dec-09 05:42N 32°44' W 118°42'13 9.4
2017-Dec-09 04:17N 32°55' W 118°52'3 9.5
2017-Dec-09 04:00N 32°57' W 118°53'5 9.2
2017-Dec-09 03:30N 33°00' W 118°57'4 9.0
2017-Dec-09 03:00N 33°04' W 119°00'4 7.1
2017-Dec-09 02:30N 33°07' W 119°03'3 6.4
2017-Dec-09 01:59N 33°09' W 119°05'4 9.0
2017-Dec-09 01:30N 33°13' W 119°08'4 8.7
2017-Dec-09 01:00N 33°17' W 119°11'4 8.6
2017-Dec-09 00:30N 33°20' W 119°14'4 8.9
2017-Dec-09 00:00N 33°24' W 119°17'4 8.8
2017-Dec-08 23:30N 33°27' W 119°20'4 8.8
2017-Dec-08 23:00N 33°31' W 119°23'4 8.7
2017-Dec-08 22:30N 33°34' W 119°27'4 8.4
2017-Dec-08 22:00N 33°37' W 119°30'4 8.9
2017-Dec-08 21:30N 33°41' W 119°33'4 8.9
2017-Dec-08 21:00N 33°44' W 119°36'4 8.7
2017-Dec-08 20:30N 33°48' W 119°39'5 8.9
2017-Dec-08 19:59N 33°52' W 119°43'4 8.1
2017-Dec-08 19:30N 33°52' W 119°47'4 8.5
2017-Dec-08 19:00N 33°52' W 119°52'4 8.2
2017-Dec-08 18:29N 33°51' W 119°57'8 8.3
2017-Dec-08 17:29N 33°48' W 120°07'4 8.3
2017-Dec-08 17:00N 33°46' W 120°11'4 8.4
2017-Dec-08 16:29N 33°45' W 120°16'4 8.3
2017-Dec-08 16:00N 33°44' W 120°21'4 8.2
2017-Dec-08 15:30N 33°42' W 120°25'4 8.7
2017-Dec-08 15:00N 33°39' W 120°29'4 8.9
2017-Dec-08 14:30N 33°36' W 120°33'5 9.1
2017-Dec-08 14:00N 33°33' W 120°37'4 7.8
2017-Dec-08 13:30N 33°33' W 120°42'4 8.4
2017-Dec-08 13:00N 33°36' W 120°46'4 8.3
2017-Dec-08 12:30N 33°39' W 120°49'4 8.6
2017-Dec-08 12:00N 33°43' W 120°51'4 8.5
2017-Dec-08 11:30N 33°46' W 120°54'4 8.4
2017-Dec-08 11:00N 33°50' W 120°57'4 8.5
2017-Dec-08 10:30N 33°54' W 120°59'4 8.7
2017-Dec-08 10:00N 33°57' W 121°02'4 9.0
2017-Dec-08 09:30N 34°01' W 121°05'4 8.8
2017-Dec-08 09:00N 34°05' W 121°08'4 8.6
2017-Dec-08 08:30N 34°08' W 121°11'4 8.3
2017-Dec-08 08:00N 34°12' W 121°14'4 8.7
2017-Dec-08 07:30N 34°16' W 121°16'4 8.9
2017-Dec-08 07:00N 34°19' W 121°19'5 9.2
2017-Dec-08 06:30N 34°24' W 121°21'5 9.3
2017-Dec-08 05:59N 34°28' W 121°24'4 9.0
2017-Dec-08 05:30N 34°32' W 121°26'4 8.9
2017-Dec-08 05:00N 34°35' W 121°29'5 9.0
2017-Dec-08 04:30N 34°39' W 121°32'4 9.0
2017-Dec-08 04:00N 34°43' W 121°35'4 8.9
2017-Dec-08 03:30N 34°47' W 121°38'4 8.9
2017-Dec-08 03:00N 34°51' W 121°40'5 9.0
2017-Dec-08 02:30N 34°55' W 121°43'4 8.9
2017-Dec-08 02:00N 34°58' W 121°46'5 9.1
2017-Dec-08 01:30N 35°02' W 121°49'4 8.7
2017-Dec-08 01:00N 35°06' W 121°52'4 8.7
2017-Dec-08 00:30N 35°10' W 121°54'4 8.9
2017-Dec-08 00:00N 35°14' W 121°57'4 8.9
2017-Dec-07 23:30N 35°18' W 121°60'4 8.8
2017-Dec-07 23:00N 35°21' W 122°03'4 8.6
2017-Dec-07 22:30N 35°25' W 122°05'4 8.5
2017-Dec-07 22:00N 35°29' W 122°08'4 8.2
2017-Dec-07 21:30N 35°32' W 122°10'4 8.5
2017-Dec-07 21:00N 35°36' W 122°13'4 8.9
2017-Dec-07 20:30N 35°40' W 122°16'4 8.8
2017-Dec-07 20:00N 35°43' W 122°19'4 8.6
2017-Dec-07 19:30N 35°47' W 122°22'4 8.8
2017-Dec-07 19:00N 35°51' W 122°24'4 8.8
2017-Dec-07 18:30N 35°55' W 122°27'4 8.9
2017-Dec-07 18:00N 35°58' W 122°30'4 9.0
2017-Dec-07 17:30N 36°02' W 122°33'5 9.1
2017-Dec-07 17:00N 36°06' W 122°36'5 9.3
2017-Dec-07 16:30N 36°10' W 122°39'5 9.2
2017-Dec-07 16:00N 36°14' W 122°42'5 9.5
2017-Dec-07 15:30N 36°18' W 122°44'5 9.5
2017-Dec-07 15:00N 36°22' W 122°47'5 9.5
2017-Dec-07 14:30N 36°26' W 122°51'5 9.2
2017-Dec-07 14:00N 36°30' W 122°54'  
Track history (hours):
 
Tides and Currents Weather Stations Pressure Air Temp Water Temp Dewpoint Dewpoint Depression Visibility Wind Speed Wind Dir Waves Ship Positions

Seaspan Royal

Last reported at 2017-Dec-17 14:00 UTC. Time now 2017-Dec-17 14:01 UTC.
Position N 34°17' W 121°16'.

Length 40 m; draft 5.6 m.

Type: Tug. MMSI: 316003600.

Date/timePositionNaut miles runAvg speedWind from/ knotsBaromVisibWave heightAir tempDewpointWater temp
2017-Dec-17 14:00N 34°17' W 121°16'3 6.4
2017-Dec-17 13:30N 34°14' W 121°14'3 5.8
2017-Dec-17 13:00N 34°12' W 121°12'3 5.5
2017-Dec-17 12:30N 34°10' W 121°10'3 5.4
2017-Dec-17 12:00N 34°07' W 121°09'3 5.3
2017-Dec-17 11:30N 34°05' W 121°07'3 5.5
2017-Dec-17 11:00N 34°03' W 121°06'3 5.6
2017-Dec-17 10:30N 34°00' W 121°04'3 5.4
2017-Dec-17 10:00N 33°58' W 121°02'3 5.5
2017-Dec-17 09:30N 33°56' W 121°01'3 5.5
2017-Dec-17 09:00N 33°53' W 120°59'3 5.1
2017-Dec-17 08:30N 33°51' W 120°57'3 5.4
2017-Dec-17 08:00N 33°49' W 120°55'3 5.4
2017-Dec-17 07:30N 33°46' W 120°54'3 5.4
2017-Dec-17 07:00N 33°44' W 120°52'3 5.2
2017-Dec-17 06:30N 33°42' W 120°51'2 4.9
2017-Dec-17 06:00N 33°40' W 120°49'2 4.9
2017-Dec-17 05:30N 33°37' W 120°48'2 4.9
2017-Dec-17 05:00N 33°35' W 120°46'2 4.9
2017-Dec-17 04:30N 33°33' W 120°45'2 4.8
2017-Dec-17 04:00N 33°31' W 120°43'2 4.6
2017-Dec-17 03:30N 33°29' W 120°42'2 4.4
2017-Dec-17 03:00N 33°28' W 120°40'2 4.4
2017-Dec-17 02:30N 33°26' W 120°39'2 4.5
2017-Dec-17 01:59N 33°24' W 120°37'2 4.4
2017-Dec-17 01:30N 33°23' W 120°35'2 3.9
2017-Dec-17 01:00N 33°21' W 120°33'2 3.6
2017-Dec-17 00:30N 33°20' W 120°32'1 2.8
2017-Dec-17 00:00N 33°19' W 120°30'1 2.6
2017-Dec-16 23:30N 33°18' W 120°29'1 2.4
2017-Dec-16 22:56N 33°17' W 120°28'1 2.4
2017-Dec-16 22:28N 33°17' W 120°27'1 2.6
2017-Dec-16 21:56N 33°16' W 120°26'1 2.2
2017-Dec-16 21:30N 33°15' W 120°25'1 2.2
2017-Dec-16 21:00N 33°14' W 120°24'1 2.4
2017-Dec-16 20:30N 33°13' W 120°23'1 2.0
2017-Dec-16 20:00N 33°13' W 120°22'2 2.1
2017-Dec-16 18:50N 33°11' W 120°20'1 2.4
2017-Dec-16 18:30N 33°11' W 120°19'3 3.0
2017-Dec-16 17:28N 33°08' W 120°16'2 3.8
2017-Dec-16 17:00N 33°07' W 120°15'66 6.2
2017-Dec-16 06:15N 32°18' W 119°22'2 8.2
2017-Dec-16 06:00N 32°17' W 119°20'4 8.1
2017-Dec-16 05:28N 32°14' W 119°17'4 7.8
2017-Dec-16 05:00N 32°11' W 119°14'6 7.8
2017-Dec-16 04:17N 32°07' W 119°09'17 7.9
2017-Dec-16 02:11N 31°55' W 118°56'1 7.8
2017-Dec-16 02:00N 31°54' W 118°54'  
2017-Dec-09 13:08N 32°13' W 117°35'1 8.4
2017-Dec-09 13:00N 32°13' W 117°36'4 8.0
2017-Dec-09 12:29N 32°15' W 117°41'4 8.3
2017-Dec-09 12:00N 32°17' W 117°45'4 8.7
2017-Dec-09 11:30N 32°19' W 117°50'4 8.7
2017-Dec-09 11:00N 32°21' W 117°54'4 8.6
2017-Dec-09 10:30N 32°22' W 117°59'4 8.7
2017-Dec-09 10:00N 32°24' W 118°03'4 8.8
2017-Dec-09 09:30N 32°26' W 118°08'4 8.8
2017-Dec-09 09:00N 32°28' W 118°13'5 8.9
2017-Dec-09 08:29N 32°30' W 118°18'4 8.6
2017-Dec-09 08:00N 32°32' W 118°22'5 8.9
2017-Dec-09 07:25N 32°35' W 118°27'5 9.0
2017-Dec-09 06:54N 32°37' W 118°32'4 9.1
2017-Dec-09 06:30N 32°39' W 118°36'7 9.0
2017-Dec-09 05:42N 32°44' W 118°42'13 9.4
2017-Dec-09 04:17N 32°55' W 118°52'3 9.5
2017-Dec-09 04:00N 32°57' W 118°53'5 9.2
2017-Dec-09 03:30N 33°00' W 118°57'4 9.0
2017-Dec-09 03:00N 33°04' W 119°00'4 7.1
2017-Dec-09 02:30N 33°07' W 119°03'3 6.4
2017-Dec-09 01:59N 33°09' W 119°05'4 9.0
2017-Dec-09 01:30N 33°13' W 119°08'4 8.7
2017-Dec-09 01:00N 33°17' W 119°11'4 8.6
2017-Dec-09 00:30N 33°20' W 119°14'4 8.9
2017-Dec-09 00:00N 33°24' W 119°17'4 8.8
2017-Dec-08 23:30N 33°27' W 119°20'4 8.8
2017-Dec-08 23:00N 33°31' W 119°23'4 8.7
2017-Dec-08 22:30N 33°34' W 119°27'4 8.4
2017-Dec-08 22:00N 33°37' W 119°30'4 8.9
2017-Dec-08 21:30N 33°41' W 119°33'4 8.9
2017-Dec-08 21:00N 33°44' W 119°36'4 8.7
2017-Dec-08 20:30N 33°48' W 119°39'5 8.9
2017-Dec-08 19:59N 33°52' W 119°43'4 8.1
2017-Dec-08 19:30N 33°52' W 119°47'4 8.5
2017-Dec-08 19:00N 33°52' W 119°52'4 8.2
2017-Dec-08 18:29N 33°51' W 119°57'8 8.3
2017-Dec-08 17:29N 33°48' W 120°07'4 8.3
2017-Dec-08 17:00N 33°46' W 120°11'4 8.4
2017-Dec-08 16:29N 33°45' W 120°16'4 8.3
2017-Dec-08 16:00N 33°44' W 120°21'4 8.2
2017-Dec-08 15:30N 33°42' W 120°25'4 8.7
2017-Dec-08 15:00N 33°39' W 120°29'4 8.9
2017-Dec-08 14:30N 33°36' W 120°33'5 9.1
2017-Dec-08 14:00N 33°33' W 120°37'4 7.8
2017-Dec-08 13:30N 33°33' W 120°42'4 8.4
2017-Dec-08 13:00N 33°36' W 120°46'4 8.3
2017-Dec-08 12:30N 33°39' W 120°49'4 8.6
2017-Dec-08 12:00N 33°43' W 120°51'4 8.5
2017-Dec-08 11:30N 33°46' W 120°54'4 8.4
2017-Dec-08 11:00N 33°50' W 120°57'4 8.5
2017-Dec-08 10:30N 33°54' W 120°59'4 8.7
2017-Dec-08 10:00N 33°57' W 121°02'4 9.0
2017-Dec-08 09:30N 34°01' W 121°05'4 8.8
2017-Dec-08 09:00N 34°05' W 121°08'4 8.6
2017-Dec-08 08:30N 34°08' W 121°11'4 8.3
2017-Dec-08 08:00N 34°12' W 121°14'4 8.7
2017-Dec-08 07:30N 34°16' W 121°16'4 8.9
2017-Dec-08 07:00N 34°19' W 121°19'5 9.2
2017-Dec-08 06:30N 34°24' W 121°21'5 9.3
2017-Dec-08 05:59N 34°28' W 121°24'4 9.0
2017-Dec-08 05:30N 34°32' W 121°26'4 8.9
2017-Dec-08 05:00N 34°35' W 121°29'5 9.0
2017-Dec-08 04:30N 34°39' W 121°32'4 9.0
2017-Dec-08 04:00N 34°43' W 121°35'4 8.9
2017-Dec-08 03:30N 34°47' W 121°38'4 8.9
2017-Dec-08 03:00N 34°51' W 121°40'5 9.0
2017-Dec-08 02:30N 34°55' W 121°43'4 8.9
2017-Dec-08 02:00N 34°58' W 121°46'5 9.1
2017-Dec-08 01:30N 35°02' W 121°49'4 8.7
2017-Dec-08 01:00N 35°06' W 121°52'4 8.7
2017-Dec-08 00:30N 35°10' W 121°54'4 8.9
2017-Dec-08 00:00N 35°14' W 121°57'4 8.9
2017-Dec-07 23:30N 35°18' W 121°60'4 8.8
2017-Dec-07 23:00N 35°21' W 122°03'4 8.6
2017-Dec-07 22:30N 35°25' W 122°05'4 8.5
2017-Dec-07 22:00N 35°29' W 122°08'4 8.2
2017-Dec-07 21:30N 35°32' W 122°10'4 8.5
2017-Dec-07 21:00N 35°36' W 122°13'4 8.9
2017-Dec-07 20:30N 35°40' W 122°16'4 8.8
2017-Dec-07 20:00N 35°43' W 122°19'4 8.6
2017-Dec-07 19:30N 35°47' W 122°22'4 8.8
2017-Dec-07 19:00N 35°51' W 122°24'4 8.8
2017-Dec-07 18:30N 35°55' W 122°27'4 8.9
2017-Dec-07 18:00N 35°58' W 122°30'4 9.0
2017-Dec-07 17:30N 36°02' W 122°33'5 9.1
2017-Dec-07 17:00N 36°06' W 122°36'5 9.3
2017-Dec-07 16:30N 36°10' W 122°39'5 9.2
2017-Dec-07 16:00N 36°14' W 122°42'5 9.5
2017-Dec-07 15:30N 36°18' W 122°44'5 9.5
2017-Dec-07 15:00N 36°22' W 122°47'5 9.5
2017-Dec-07 14:30N 36°26' W 122°51'5 9.2
2017-Dec-07 14:00N 36°30' W 122°54'  

Dump ship's entire track history